createdAt,value
2023-05-16T00:00:40.454Z,574.00
2023-05-16T00:01:40.447Z,575.00
2023-05-16T00:02:40.669Z,572.00
2023-05-16T00:03:40.521Z,570.00
2023-05-16T00:04:40.653Z,569.00
2023-05-16T00:05:40.420Z,568.00
2023-05-16T00:06:40.510Z,570.00
2023-05-16T00:07:40.410Z,571.00
2023-05-16T00:08:47.395Z,571.00
2023-05-16T00:09:40.426Z,570.00
2023-05-16T00:10:40.404Z,569.00
2023-05-16T00:11:40.468Z,570.00
2023-05-16T00:12:40.373Z,574.00
2023-05-16T00:13:47.367Z,572.00
2023-05-16T00:14:40.365Z,573.00
2023-05-16T00:15:40.351Z,574.00
2023-05-16T00:16:40.382Z,575.00
2023-05-16T00:17:40.397Z,574.00
2023-05-16T00:18:40.366Z,573.00
2023-05-16T00:19:40.309Z,573.00
2023-05-16T00:20:40.334Z,572.00
2023-05-16T00:21:40.280Z,573.00
2023-05-16T00:22:40.277Z,573.00
2023-05-16T00:23:40.287Z,571.00
2023-05-16T00:24:40.297Z,567.00
2023-05-16T00:25:40.278Z,566.00
2023-05-16T00:26:40.251Z,565.00
2023-05-16T00:27:40.243Z,567.00
2023-05-16T00:28:40.271Z,568.00
2023-05-16T00:29:40.237Z,569.00
2023-05-16T00:30:40.244Z,572.00
2023-05-16T00:31:40.278Z,571.00
2023-05-16T00:32:40.281Z,569.00
2023-05-16T00:33:47.235Z,569.00
2023-05-16T00:34:40.272Z,567.00
2023-05-16T00:35:40.230Z,569.00
2023-05-16T00:36:40.209Z,568.00
2023-05-16T00:37:40.253Z,565.00
2023-05-16T00:38:40.181Z,566.00
2023-05-16T00:39:40.184Z,568.00
2023-05-16T00:40:40.154Z,568.00
2023-05-16T00:41:40.169Z,567.00
2023-05-16T00:42:40.156Z,566.00
2023-05-16T00:43:47.144Z,564.00
2023-05-16T00:44:40.132Z,560.00
2023-05-16T00:45:40.131Z,562.00
2023-05-16T00:46:40.208Z,562.00
2023-05-16T00:47:40.137Z,562.00
2023-05-16T00:48:40.092Z,564.00
2023-05-16T00:49:40.119Z,563.00
2023-05-16T00:50:40.095Z,565.00
2023-05-16T00:51:40.069Z,564.00
2023-05-16T00:52:40.067Z,564.00
2023-05-16T00:53:40.097Z,565.00
2023-05-16T00:54:40.060Z,568.00
2023-05-16T00:55:40.097Z,569.00
2023-05-16T00:56:40.048Z,571.00
2023-05-16T00:57:40.051Z,575.00
2023-05-16T00:58:40.038Z,574.00
2023-05-16T00:59:40.055Z,571.00
2023-05-16T01:00:40.031Z,570.00
2023-05-16T01:01:40.079Z,568.00
2023-05-16T01:02:40.179Z,569.00
2023-05-16T01:03:40.095Z,569.00
2023-05-16T01:04:39.974Z,568.00
2023-05-16T01:05:40.015Z,567.00
2023-05-16T01:06:40.018Z,567.00
2023-05-16T01:07:39.967Z,569.00
2023-05-16T01:08:39.963Z,566.00
2023-05-16T01:09:40.002Z,564.00
2023-05-16T01:10:40.026Z,564.00
2023-05-16T01:11:39.937Z,565.00
2023-05-16T01:12:40.009Z,564.00
2023-05-16T01:13:39.959Z,566.00
2023-05-16T01:14:39.944Z,570.00
2023-05-16T01:15:39.960Z,572.00
2023-05-16T01:16:40.106Z,567.00
2023-05-16T01:17:39.966Z,566.00
2023-05-16T01:18:39.937Z,568.00
2023-05-16T01:19:39.877Z,567.00
2023-05-16T01:20:39.927Z,567.00
2023-05-16T01:21:39.891Z,567.00
2023-05-16T01:22:39.897Z,570.00
2023-05-16T01:23:39.877Z,569.00
2023-05-16T01:24:39.871Z,569.00
2023-05-16T01:25:39.877Z,568.00
2023-05-16T01:26:39.854Z,568.00
2023-05-16T01:27:39.835Z,568.00
2023-05-16T01:28:39.848Z,566.00
2023-05-16T01:29:39.851Z,564.00
2023-05-16T01:30:39.820Z,565.00
2023-05-16T01:31:39.917Z,564.00
2023-05-16T01:32:39.888Z,562.00
2023-05-16T01:33:39.822Z,564.00
2023-05-16T01:34:39.800Z,563.00
2023-05-16T01:35:39.819Z,565.00
2023-05-16T01:36:39.791Z,562.00
2023-05-16T01:37:39.787Z,565.00
2023-05-16T01:38:39.783Z,564.00
2023-05-16T01:39:39.760Z,560.00
2023-05-16T01:40:39.770Z,560.00
2023-05-16T01:41:39.766Z,561.00
2023-05-16T01:42:39.747Z,562.00
2023-05-16T01:43:39.751Z,562.00
2023-05-16T01:44:39.728Z,563.00
2023-05-16T01:45:39.740Z,563.00
2023-05-16T01:46:39.744Z,565.00
2023-05-16T01:47:39.738Z,566.00
2023-05-16T01:48:39.743Z,567.00
2023-05-16T01:49:39.704Z,567.00
2023-05-16T01:50:39.716Z,565.00
2023-05-16T01:51:39.716Z,565.00
2023-05-16T01:52:39.717Z,565.00
2023-05-16T01:53:39.744Z,568.00
2023-05-16T01:54:39.772Z,568.00
2023-05-16T01:55:39.784Z,566.00
2023-05-16T01:56:39.807Z,565.00
2023-05-16T01:57:39.804Z,563.00
2023-05-16T01:58:39.842Z,565.00
2023-05-16T01:59:39.842Z,566.00
2023-05-16T02:00:39.841Z,564.00
2023-05-16T02:01:39.917Z,565.00
2023-05-16T02:02:39.900Z,567.00
2023-05-16T02:03:39.948Z,567.00
2023-05-16T02:04:39.877Z,564.00
2023-05-16T02:05:39.912Z,561.00
2023-05-16T02:06:39.912Z,560.00
2023-05-16T02:07:39.984Z,559.00
2023-05-16T02:08:39.900Z,560.00
2023-05-16T02:09:39.927Z,558.00
2023-05-16T02:10:39.976Z,556.00
2023-05-16T02:11:40.003Z,554.00
2023-05-16T02:12:40.011Z,555.00
2023-05-16T02:13:40.038Z,552.00
2023-05-16T02:14:40.050Z,553.00
2023-05-16T02:15:40.050Z,553.00
2023-05-16T02:16:40.156Z,555.00
2023-05-16T02:17:40.094Z,558.00
2023-05-16T02:18:40.136Z,559.00
2023-05-16T02:19:40.092Z,561.00
2023-05-16T02:20:40.129Z,559.00
2023-05-16T02:21:40.136Z,558.00
2023-05-16T02:22:40.141Z,558.00
2023-05-16T02:23:40.147Z,557.00
2023-05-16T02:24:40.144Z,558.00
2023-05-16T02:25:40.170Z,558.00
2023-05-16T02:26:40.219Z,559.00
2023-05-16T02:27:40.221Z,559.00
2023-05-16T02:28:40.225Z,558.00
2023-05-16T02:29:40.287Z,556.00
2023-05-16T02:30:40.300Z,556.00
2023-05-16T02:31:40.364Z,559.00
2023-05-16T02:32:40.323Z,559.00
2023-05-16T02:33:40.285Z,560.00
2023-05-16T02:34:40.328Z,557.00
2023-05-16T02:35:40.328Z,555.00
2023-05-16T02:36:40.388Z,554.00
2023-05-16T02:37:40.409Z,555.00
2023-05-16T02:38:40.446Z,555.00
2023-05-16T02:39:40.494Z,555.00
2023-05-16T02:40:40.467Z,552.00
2023-05-16T02:41:40.486Z,552.00
2023-05-16T02:42:40.538Z,553.00
2023-05-16T02:43:40.546Z,557.00
2023-05-16T02:44:40.575Z,557.00
2023-05-16T02:45:40.599Z,560.00
2023-05-16T02:46:40.716Z,560.00
2023-05-16T02:47:40.658Z,560.00
2023-05-16T02:48:40.597Z,559.00
2023-05-16T02:49:40.644Z,560.00
2023-05-16T02:50:40.677Z,558.00
2023-05-16T02:51:40.687Z,555.00
2023-05-16T02:52:40.697Z,553.00
2023-05-16T02:53:40.734Z,554.00
2023-05-16T02:54:40.741Z,553.00
2023-05-16T02:55:40.880Z,552.00
2023-05-16T02:56:40.793Z,551.00
2023-05-16T02:57:40.811Z,550.00
2023-05-16T02:58:40.808Z,554.00
2023-05-16T02:59:40.817Z,554.00
2023-05-16T03:00:40.813Z,557.00
2023-05-16T03:01:40.949Z,556.00
2023-05-16T03:02:40.947Z,556.00
2023-05-16T03:03:40.932Z,557.00
2023-05-16T03:04:40.908Z,557.00
2023-05-16T03:05:40.941Z,557.00
2023-05-16T03:06:40.943Z,561.00
2023-05-16T03:07:40.986Z,563.00
2023-05-16T03:08:40.959Z,564.00
2023-05-16T03:09:40.978Z,565.00
2023-05-16T03:10:41.018Z,563.00
2023-05-16T03:11:41.021Z,559.00
2023-05-16T03:12:41.063Z,559.00
2023-05-16T03:13:41.072Z,560.00
2023-05-16T03:14:41.083Z,560.00
2023-05-16T03:15:41.122Z,560.00
2023-05-16T03:16:41.202Z,559.00
2023-05-16T03:17:41.185Z,558.00
2023-05-16T03:18:41.197Z,558.00
2023-05-16T03:19:41.198Z,559.00
2023-05-16T03:20:41.196Z,558.00
2023-05-16T03:21:41.228Z,557.00
2023-05-16T03:22:41.240Z,561.00
2023-05-16T03:23:41.249Z,561.00
2023-05-16T03:24:41.351Z,561.00
2023-05-16T03:25:41.315Z,561.00
2023-05-16T03:26:41.328Z,559.00
2023-05-16T03:27:41.343Z,556.00
2023-05-16T03:28:41.361Z,556.00
2023-05-16T03:29:41.367Z,558.00
2023-05-16T03:30:41.400Z,555.00
2023-05-16T03:31:41.461Z,552.00
2023-05-16T03:32:41.565Z,553.00
2023-05-16T03:33:41.452Z,552.00
2023-05-16T03:34:41.479Z,555.00
2023-05-16T03:35:41.511Z,557.00
2023-05-16T03:36:41.515Z,559.00
2023-05-16T03:37:41.521Z,560.00
2023-05-16T03:38:41.556Z,560.00
2023-05-16T03:39:41.553Z,560.00
2023-05-16T03:40:41.598Z,562.00
2023-05-16T03:41:41.581Z,563.00
2023-05-16T03:42:41.633Z,561.00
2023-05-16T03:43:41.632Z,561.00
2023-05-16T03:44:41.625Z,560.00
2023-05-16T03:45:41.732Z,559.00
2023-05-16T03:46:41.679Z,562.00
2023-05-16T03:47:41.709Z,562.00
2023-05-16T03:48:41.724Z,563.00
2023-05-16T03:49:41.725Z,561.00
2023-05-16T03:50:41.741Z,561.00
2023-05-16T03:51:41.781Z,563.00
2023-05-16T03:52:41.792Z,568.00
2023-05-16T03:53:41.809Z,567.00
2023-05-16T03:54:41.818Z,566.00
2023-05-16T03:55:41.839Z,564.00
2023-05-16T03:56:41.855Z,562.00
2023-05-16T03:57:41.908Z,562.00
2023-05-16T03:58:41.909Z,560.00
2023-05-16T03:59:41.945Z,559.00
2023-05-16T04:00:41.954Z,562.00
2023-05-16T04:01:42.000Z,564.00
2023-05-16T04:02:42.123Z,559.00
2023-05-16T04:03:42.023Z,558.00
2023-05-16T04:04:42.039Z,560.00
2023-05-16T04:05:42.170Z,563.00
2023-05-16T04:06:42.094Z,562.00
2023-05-16T04:07:42.145Z,561.00
2023-05-16T04:08:42.192Z,560.00
2023-05-16T04:09:42.217Z,560.00
2023-05-16T04:10:42.247Z,558.00
2023-05-16T04:11:42.254Z,559.00
2023-05-16T04:12:42.272Z,558.00
2023-05-16T04:13:42.290Z,561.00
2023-05-16T04:14:42.336Z,562.00
2023-05-16T04:15:42.333Z,562.00
2023-05-16T04:16:42.418Z,561.00
2023-05-16T04:17:42.439Z,563.00
2023-05-16T04:18:42.440Z,565.00
2023-05-16T04:19:42.466Z,564.00
2023-05-16T04:20:42.448Z,563.00
2023-05-16T04:21:42.484Z,560.00
2023-05-16T04:22:42.530Z,562.00
2023-05-16T04:23:42.551Z,564.00
2023-05-16T04:24:42.586Z,562.00
2023-05-16T04:25:42.622Z,563.00
2023-05-16T04:26:42.639Z,561.00
2023-05-16T04:27:42.662Z,562.00
2023-05-16T04:28:42.668Z,562.00
2023-05-16T04:29:42.687Z,560.00
2023-05-16T04:30:42.740Z,559.00
2023-05-16T04:31:42.777Z,559.00
2023-05-16T04:32:42.755Z,559.00
2023-05-16T04:33:42.787Z,562.00
2023-05-16T04:34:42.800Z,561.00
2023-05-16T04:35:42.799Z,560.00
2023-05-16T04:36:42.841Z,557.00
2023-05-16T04:37:42.871Z,556.00
2023-05-16T04:38:42.915Z,557.00
2023-05-16T04:39:42.940Z,557.00
2023-05-16T04:40:42.963Z,557.00
2023-05-16T04:41:42.949Z,558.00
2023-05-16T04:42:43.047Z,558.00
2023-05-16T04:43:42.989Z,558.00
2023-05-16T04:44:43.004Z,558.00
2023-05-16T04:45:43.058Z,559.00
2023-05-16T04:46:43.076Z,560.00
2023-05-16T04:47:43.123Z,562.00
2023-05-16T04:48:43.115Z,563.00
2023-05-16T04:49:43.126Z,562.00
2023-05-16T04:50:43.166Z,563.00
2023-05-16T04:51:43.152Z,565.00
2023-05-16T04:52:43.214Z,565.00
2023-05-16T04:53:43.202Z,568.00
2023-05-16T04:54:43.258Z,568.00
2023-05-16T04:55:43.291Z,566.00
2023-05-16T04:56:43.290Z,564.00
2023-05-16T04:57:43.357Z,564.00
2023-05-16T04:58:43.357Z,564.00
2023-05-16T04:59:43.404Z,564.00
2023-05-16T05:00:43.418Z,565.00
2023-05-16T05:01:43.496Z,566.00
2023-05-16T05:02:43.511Z,567.00
2023-05-16T05:03:44.058Z,568.00
2023-05-16T05:04:43.537Z,566.00
2023-05-16T05:05:43.541Z,565.00
2023-05-16T05:06:43.565Z,564.00
2023-05-16T05:07:43.589Z,564.00
2023-05-16T05:08:43.630Z,564.00
2023-05-16T05:09:43.677Z,564.00
2023-05-16T05:10:43.692Z,563.00
2023-05-16T05:11:43.782Z,561.00
2023-05-16T05:12:45.128Z,561.00
2023-05-16T05:13:43.745Z,562.00
2023-05-16T05:14:43.796Z,561.00
2023-05-16T05:15:43.926Z,565.00
2023-05-16T05:16:43.852Z,566.00
2023-05-16T05:17:43.961Z,564.00
2023-05-16T05:18:44.009Z,563.00
2023-05-16T05:19:44.071Z,564.00
2023-05-16T05:20:43.948Z,567.00
2023-05-16T05:21:43.995Z,568.00
2023-05-16T05:22:44.030Z,571.00
2023-05-16T05:23:44.081Z,569.00
2023-05-16T05:24:44.090Z,570.00
2023-05-16T05:25:44.150Z,572.00
2023-05-16T05:26:44.125Z,574.00
2023-05-16T05:27:44.181Z,575.00
2023-05-16T05:29:44.195Z,574.00
2023-05-16T05:30:44.277Z,574.00
2023-05-16T05:31:44.326Z,576.00
2023-05-16T05:32:44.335Z,575.00
2023-05-16T05:33:44.354Z,574.00
2023-05-16T05:34:44.387Z,573.00
2023-05-16T05:35:44.696Z,572.00
2023-05-16T05:36:44.400Z,571.00
2023-05-16T05:37:44.483Z,587.00
2023-05-16T05:38:44.460Z,613.00
2023-05-16T05:39:44.481Z,746.00
2023-05-16T07:45:11.017Z,1353.00
2023-05-16T07:46:11.047Z,1301.00
2023-05-16T07:47:10.977Z,1284.00
2023-05-16T07:48:11.013Z,1290.00
2023-05-16T07:49:10.938Z,1295.00
2023-05-16T07:50:10.949Z,1302.00
2023-05-16T07:51:10.985Z,1321.00
2023-05-16T07:52:10.937Z,1378.00
2023-05-16T07:53:10.910Z,1395.00
2023-05-16T07:54:10.944Z,1410.00
2023-05-16T07:55:10.920Z,1425.00
2023-05-16T07:56:10.926Z,1436.00
2023-05-16T07:57:10.913Z,1463.00
2023-05-16T07:58:10.913Z,1466.00
2023-05-16T07:59:10.901Z,1471.00
2023-05-16T08:00:10.876Z,1479.00
2023-05-16T08:01:10.919Z,1484.00
2023-05-16T08:02:10.901Z,1492.00
2023-05-16T08:03:10.998Z,1495.00
2023-05-16T08:04:10.854Z,1495.00
2023-05-16T08:05:10.992Z,1497.00
2023-05-16T08:06:10.999Z,1503.00
2023-05-16T08:07:10.831Z,1524.00
2023-05-16T08:08:10.835Z,1531.00
2023-05-16T08:09:10.803Z,1538.00
2023-05-16T08:10:13.322Z,1541.00
2023-05-16T08:11:10.792Z,1542.00
2023-05-16T08:12:10.852Z,1553.00
2023-05-16T08:13:10.797Z,1171.00
2023-05-16T08:14:10.779Z,1007.00
2023-05-16T08:15:10.784Z,892.00
2023-05-16T08:16:10.829Z,838.00
2023-05-16T08:17:10.763Z,763.00
2023-05-16T08:18:10.796Z,704.00
2023-05-16T08:19:10.882Z,670.00
2023-05-16T08:20:10.804Z,659.00
2023-05-16T08:21:10.735Z,649.00
2023-05-16T08:22:10.797Z,635.00
2023-05-16T08:23:10.752Z,631.00
2023-05-16T08:24:10.738Z,626.00
2023-05-16T08:25:10.742Z,621.00
2023-05-16T08:26:10.737Z,616.00
2023-05-16T08:27:10.741Z,604.00
2023-05-16T08:28:10.703Z,596.00
2023-05-16T08:29:10.710Z,611.00
2023-05-16T08:30:10.693Z,654.00
2023-05-16T08:31:10.754Z,666.00
2023-05-16T08:32:10.657Z,679.00
2023-05-16T08:33:10.769Z,690.00
2023-05-16T08:34:10.635Z,698.00
2023-05-16T08:35:10.632Z,702.00
2023-05-16T08:36:10.681Z,870.00
2023-05-16T08:37:10.670Z,878.00
2023-05-16T08:38:10.634Z,956.00
2023-05-16T08:39:10.728Z,957.00
2023-05-16T08:40:10.865Z,969.00
2023-05-16T08:41:10.601Z,1044.00
2023-05-16T08:42:10.591Z,1152.00
2023-05-16T08:43:10.596Z,1163.00
2023-05-16T08:44:11.202Z,1288.00
2023-05-16T08:45:10.567Z,1280.00
2023-05-16T08:46:10.603Z,1255.00
2023-05-16T08:47:10.659Z,1271.00
2023-05-16T08:48:10.734Z,1329.00
2023-05-16T08:49:10.633Z,1453.00
2023-05-16T08:50:10.652Z,1541.00
2023-05-16T08:51:10.555Z,1545.00
2023-05-16T08:52:10.534Z,1559.00
2023-05-16T08:53:10.508Z,1429.00
2023-05-16T08:54:10.512Z,1078.00
2023-05-16T08:55:11.853Z,1108.00
2023-05-16T08:56:10.539Z,1128.00
2023-05-16T08:57:10.540Z,1164.00
2023-05-16T08:58:10.581Z,1144.00
2023-05-16T08:59:10.628Z,1138.00
2023-05-16T09:00:10.654Z,1115.00
2023-05-16T09:01:10.759Z,1142.00
2023-05-16T09:02:10.778Z,1104.00
2023-05-16T09:03:10.862Z,977.00
2023-05-16T09:04:10.876Z,967.00
2023-05-16T09:05:10.895Z,1061.00
2023-05-16T09:06:10.969Z,897.00
2023-05-16T09:07:11.003Z,813.00
2023-05-16T09:08:11.020Z,874.00
2023-05-16T09:09:11.094Z,800.00
2023-05-16T09:10:11.179Z,809.00
2023-05-16T09:11:11.226Z,826.00
2023-05-16T09:12:11.227Z,833.00
2023-05-16T09:13:11.330Z,836.00
2023-05-16T09:14:12.175Z,813.00
2023-05-16T09:15:11.434Z,797.00
2023-05-16T09:16:11.532Z,832.00
2023-05-16T09:17:12.622Z,781.00
2023-05-16T09:18:11.608Z,746.00
2023-05-16T09:19:11.639Z,743.00
2023-05-16T09:20:11.594Z,750.00
2023-05-16T09:21:11.631Z,744.00
2023-05-16T09:22:11.627Z,741.00
2023-05-16T09:23:11.611Z,747.00
2023-05-16T09:24:11.627Z,741.00
2023-05-16T09:25:21.784Z,699.00
2023-05-16T09:26:12.655Z,697.00
2023-05-16T09:27:11.656Z,692.00
2023-05-16T09:28:11.669Z,718.00
2023-05-16T09:29:11.665Z,731.00
2023-05-16T09:30:11.613Z,723.00
2023-05-16T09:31:11.690Z,714.00
2023-05-16T09:32:11.613Z,711.00
2023-05-16T09:33:11.671Z,700.00
2023-05-16T09:34:11.606Z,709.00
2023-05-16T09:35:11.631Z,721.00
2023-05-16T09:36:11.601Z,728.00
2023-05-16T09:37:11.626Z,733.00
2023-05-16T09:38:11.578Z,748.00
2023-05-16T09:39:11.553Z,756.00
2023-05-16T09:40:11.598Z,806.00
2023-05-16T09:41:11.641Z,847.00
2023-05-16T09:42:11.706Z,914.00
2023-05-16T09:43:11.667Z,915.00
2023-05-16T09:44:11.735Z,917.00
2023-05-16T09:45:11.739Z,936.00
2023-05-16T09:46:11.747Z,977.00
2023-05-16T09:47:11.784Z,963.00
2023-05-16T09:48:11.833Z,964.00
2023-05-16T09:49:11.780Z,956.00
2023-05-16T09:50:11.859Z,962.00
2023-05-16T09:51:11.857Z,960.00
2023-05-16T09:52:11.837Z,957.00
2023-05-16T09:53:11.881Z,957.00
2023-05-16T09:54:11.881Z,954.00
2023-05-16T09:55:11.975Z,966.00
2023-05-16T09:56:11.997Z,977.00
2023-05-16T09:57:12.053Z,987.00
2023-05-16T09:58:12.116Z,996.00
2023-05-16T09:59:12.132Z,1020.00
2023-05-16T10:00:12.194Z,1059.00
2023-05-16T10:01:12.224Z,1070.00
2023-05-16T10:02:12.331Z,1081.00
2023-05-16T10:03:12.427Z,1095.00
2023-05-16T10:04:12.517Z,1124.00
2023-05-16T10:05:12.444Z,1131.00
2023-05-16T10:06:12.671Z,1175.00
2023-05-16T10:07:12.529Z,1181.00
2023-05-16T10:08:12.587Z,1187.00
2023-05-16T10:09:12.634Z,1197.00
2023-05-16T10:10:12.646Z,1203.00
2023-05-16T10:11:12.681Z,1221.00
2023-05-16T10:12:13.736Z,1232.00
2023-05-16T10:13:12.790Z,1235.00
2023-05-16T10:14:12.782Z,1235.00
2023-05-16T10:15:12.838Z,1240.00
2023-05-16T10:16:13.019Z,1250.00
2023-05-16T10:17:12.908Z,1260.00
2023-05-16T10:18:12.983Z,1303.00
2023-05-16T10:19:12.964Z,1315.00
2023-05-16T10:20:13.018Z,1323.00
2023-05-16T10:21:13.043Z,1324.00
2023-05-16T10:22:13.089Z,1330.00
2023-05-16T10:23:13.082Z,1366.00
2023-05-16T10:24:13.149Z,977.00
2023-05-16T10:25:13.212Z,834.00
2023-05-16T10:26:13.225Z,827.00
2023-05-16T10:27:13.220Z,731.00
2023-05-16T10:28:13.257Z,699.00
2023-05-16T10:29:13.261Z,682.00
2023-05-16T10:30:13.316Z,685.00
2023-05-16T10:31:13.341Z,679.00
2023-05-16T10:32:13.348Z,670.00
2023-05-16T10:33:13.494Z,621.00
2023-05-16T10:34:13.460Z,615.00
2023-05-16T10:35:13.533Z,616.00
2023-05-16T10:36:13.586Z,621.00
2023-05-16T10:37:13.586Z,626.00
2023-05-16T10:58:27.158Z,1488.00
2023-05-16T10:59:26.959Z,1468.00
2023-05-16T11:00:26.967Z,1489.00
2023-05-16T11:01:27.031Z,1548.00
2023-05-16T11:02:27.055Z,1584.00
2023-05-16T11:03:27.009Z,1608.00
2023-05-16T11:04:26.939Z,1624.00
2023-05-16T11:05:27.288Z,1642.00
2023-05-16T11:06:26.942Z,1666.00
2023-05-16T11:07:26.948Z,1676.00
2023-05-16T11:08:26.882Z,1680.00
2023-05-16T11:09:26.896Z,1573.00
2023-05-16T11:10:26.880Z,1588.00
2023-05-16T11:11:26.868Z,1611.00
2023-05-16T11:12:26.880Z,1624.00
2023-05-16T11:13:26.865Z,1617.00
2023-05-16T11:14:26.866Z,1629.00
2023-05-16T11:15:27.125Z,1648.00
2023-05-16T11:16:26.861Z,1685.00
2023-05-16T11:17:27.172Z,1738.00
2023-05-16T11:18:26.860Z,1832.00
2023-05-16T11:19:26.816Z,1821.00
2023-05-16T11:20:26.833Z,1814.00
2023-05-16T11:21:26.814Z,1822.00
2023-05-16T11:22:26.819Z,1838.00
2023-05-16T11:23:26.800Z,1919.00
2023-05-16T11:24:26.792Z,1950.00
2023-05-16T11:25:26.894Z,1965.00
2023-05-16T11:26:26.783Z,1968.00
2023-05-16T11:27:26.766Z,2001.00
2023-05-16T11:28:26.761Z,2025.00
2023-05-16T11:29:26.738Z,2039.00
2023-05-16T11:30:26.830Z,1992.00
2023-05-16T11:31:26.764Z,1985.00
2023-05-16T11:32:26.897Z,1984.00
2023-05-16T11:33:26.814Z,1991.00
2023-05-16T11:34:26.692Z,2028.00
2023-05-16T11:35:26.790Z,2083.00
2023-05-16T11:36:26.720Z,2102.00
2023-05-16T11:37:26.693Z,2104.00
2023-05-16T11:38:26.678Z,2103.00
2023-05-16T11:39:26.716Z,2071.00
2023-05-16T11:40:33.690Z,2090.00
2023-05-16T11:41:26.662Z,2105.00
2023-05-16T11:42:26.647Z,2085.00
2023-05-16T11:43:26.652Z,2081.00
2023-05-16T11:44:26.628Z,2077.00
2023-05-16T11:45:26.790Z,2083.00
2023-05-16T11:46:26.695Z,2217.00
2023-05-16T11:47:26.654Z,2059.00
2023-05-16T11:48:35.564Z,2099.00
2023-05-16T11:49:27.582Z,2107.00
2023-05-16T11:50:26.631Z,2105.00
2023-05-16T11:51:26.633Z,2097.00
2023-05-16T11:52:26.580Z,2011.00
2023-05-16T11:53:26.595Z,2022.00
2023-05-16T11:54:26.568Z,2061.00
2023-05-16T11:55:40.377Z,2099.00
2023-05-16T11:56:27.563Z,2100.00
2023-05-16T11:57:26.554Z,2109.00
2023-05-16T11:58:26.529Z,2104.00
2023-05-16T11:59:26.752Z,1983.00
2023-05-16T12:04:18.474Z,2115.00
2023-05-16T12:05:18.172Z,1957.00
2023-05-16T12:06:18.112Z,1348.00
2023-05-16T12:07:18.132Z,1253.00
2023-05-16T12:08:18.111Z,995.00
2023-05-16T12:09:18.690Z,979.00
2023-05-16T12:10:18.097Z,962.00
2023-05-16T12:11:18.081Z,974.00
2023-05-16T12:12:18.068Z,850.00
2023-05-16T12:13:20.020Z,979.00
2023-05-16T12:14:18.120Z,962.00
2023-05-16T12:15:18.169Z,947.00
2023-05-16T12:16:18.244Z,871.00
2023-05-16T12:17:18.287Z,918.00
2023-05-16T12:18:18.256Z,935.00
2023-05-16T12:19:18.311Z,992.00
2023-05-16T12:20:18.384Z,897.00
2023-05-16T12:21:18.369Z,918.00
2023-05-16T12:22:18.360Z,885.00
2023-05-16T12:23:18.440Z,816.00
2023-05-16T12:24:18.431Z,759.00
2023-05-16T12:25:18.460Z,730.00
2023-05-16T12:26:18.524Z,694.00
2023-05-16T12:27:18.578Z,669.00
2023-05-16T12:28:18.596Z,650.00
2023-05-16T12:29:18.691Z,622.00
2023-05-16T12:30:19.286Z,603.00
2023-05-16T12:31:29.972Z,592.00
2023-05-16T12:32:19.754Z,583.00
2023-05-16T12:33:25.759Z,578.00
2023-05-16T12:34:19.354Z,576.00
2023-05-16T12:35:18.726Z,580.00
2023-05-16T12:36:18.815Z,573.00
2023-05-16T12:37:18.665Z,554.00
2023-05-16T12:38:18.680Z,543.00
2023-05-16T12:39:18.652Z,535.00
2023-05-16T12:40:18.659Z,532.00
2023-05-16T12:41:18.672Z,534.00
2023-05-16T12:42:18.636Z,534.00
2023-05-16T12:43:18.644Z,531.00
2023-05-16T12:44:18.644Z,527.00
2023-05-16T12:45:25.628Z,525.00
2023-05-16T12:46:18.714Z,522.00
2023-05-16T12:47:18.621Z,519.00
2023-05-16T12:48:18.686Z,519.00
2023-05-16T12:49:18.585Z,520.00
2023-05-16T12:50:18.584Z,517.00
2023-05-16T12:51:18.614Z,521.00
2023-05-16T12:52:18.624Z,531.00
2023-05-16T12:53:18.567Z,531.00
2023-05-16T12:54:18.565Z,532.00
2023-05-16T12:55:18.572Z,532.00
2023-05-16T12:56:18.559Z,534.00
2023-05-16T12:57:18.551Z,541.00
2023-05-16T12:58:18.597Z,551.00
2023-05-16T12:59:18.507Z,561.00
2023-05-16T13:00:28.504Z,567.00
2023-05-16T13:01:18.546Z,570.00
2023-05-16T13:02:18.504Z,573.00
2023-05-16T13:03:18.565Z,573.00
2023-05-16T13:04:18.549Z,575.00
2023-05-16T13:05:18.464Z,579.00
2023-05-16T13:06:18.474Z,583.00
2023-05-16T13:07:18.486Z,586.00
2023-05-16T13:08:18.532Z,587.00
2023-05-16T13:09:18.464Z,586.00
2023-05-16T13:10:18.471Z,587.00
2023-05-16T13:11:18.447Z,586.00
2023-05-16T13:12:18.429Z,590.00
2023-05-16T13:13:35.466Z,592.00
2023-05-16T13:14:19.455Z,594.00
2023-05-16T13:15:18.422Z,595.00
2023-05-16T13:16:18.478Z,598.00
2023-05-16T13:17:18.417Z,598.00
2023-05-16T13:18:18.458Z,600.00
2023-05-16T13:19:18.589Z,601.00
2023-05-16T13:20:18.366Z,602.00
2023-05-16T13:21:18.386Z,601.00
2023-05-16T13:22:18.379Z,596.00
2023-05-16T13:23:18.347Z,595.00
2023-05-16T13:24:18.461Z,595.00
2023-05-16T13:25:18.368Z,592.00
2023-05-16T13:26:18.341Z,589.00
2023-05-16T13:27:18.318Z,591.00
2023-05-16T13:28:18.304Z,593.00
2023-05-16T13:29:18.330Z,593.00
2023-05-16T13:30:18.278Z,599.00
2023-05-16T13:31:18.321Z,597.00
2023-05-16T13:32:18.313Z,600.00
2023-05-16T13:33:18.337Z,600.00
2023-05-16T13:34:18.318Z,603.00
2023-05-16T13:35:18.275Z,605.00
2023-05-16T13:36:18.232Z,608.00
2023-05-16T13:37:18.266Z,614.00
2023-05-16T13:38:18.250Z,613.00
2023-05-16T13:39:18.309Z,610.00
2023-05-16T13:40:18.310Z,609.00
2023-05-16T13:41:18.218Z,610.00
2023-05-16T13:42:18.214Z,612.00
2023-05-16T13:43:18.258Z,612.00
2023-05-16T13:44:18.186Z,614.00
2023-05-16T13:45:18.194Z,609.00
2023-05-16T13:46:18.321Z,608.00
2023-05-16T13:47:18.241Z,606.00
2023-05-16T13:48:18.271Z,606.00
2023-05-16T13:49:18.162Z,607.00
2023-05-16T13:50:18.187Z,605.00
2023-05-16T13:51:18.893Z,607.00
2023-05-16T13:52:18.183Z,606.00
2023-05-16T13:53:18.154Z,607.00
2023-05-16T13:54:18.146Z,607.00
2023-05-16T13:55:18.152Z,608.00
2023-05-16T13:56:18.410Z,607.00
2023-05-16T13:57:18.161Z,610.00
2023-05-16T13:58:18.119Z,610.00
2023-05-16T13:59:27.482Z,612.00
2023-05-16T14:00:42.727Z,610.00
2023-05-16T14:01:19.106Z,612.00
2023-05-16T14:02:18.082Z,615.00
2023-05-16T14:03:18.275Z,617.00
2023-05-16T14:04:18.232Z,618.00
2023-05-16T14:05:18.090Z,624.00
2023-05-16T14:06:18.078Z,635.00
2023-05-16T14:07:18.057Z,656.00
2023-05-16T14:08:18.070Z,704.00
2023-05-16T14:09:18.018Z,698.00
2023-05-16T14:10:18.046Z,699.00
2023-05-16T14:11:18.024Z,709.00
2023-05-16T14:12:18.179Z,716.00
2023-05-16T14:13:18.015Z,715.00
2023-05-16T14:14:17.987Z,722.00
2023-05-16T14:15:17.979Z,725.00
2023-05-16T14:16:18.060Z,728.00
2023-05-16T14:17:17.987Z,730.00
2023-05-16T14:18:18.014Z,733.00
2023-05-16T14:19:19.547Z,730.00
2023-05-16T14:20:18.027Z,732.00
2023-05-16T14:21:17.965Z,732.00
2023-05-16T14:22:17.932Z,734.00
2023-05-16T14:23:17.974Z,737.00
2023-05-16T14:24:17.955Z,743.00
2023-05-16T14:25:17.947Z,747.00
2023-05-16T14:26:17.920Z,793.00
2023-05-16T14:27:17.929Z,794.00
2023-05-16T14:28:17.935Z,791.00
2023-05-16T14:29:17.927Z,787.00
2023-05-16T14:30:17.923Z,792.00
2023-05-16T14:31:17.918Z,795.00
2023-05-16T14:32:17.999Z,797.00
2023-05-16T14:33:18.010Z,799.00
2023-05-16T14:34:17.879Z,800.00
2023-05-16T14:35:17.862Z,801.00
2023-05-16T14:36:17.858Z,801.00
2023-05-16T14:37:17.855Z,796.00
2023-05-16T14:38:17.859Z,791.00
2023-05-16T14:39:17.816Z,786.00
2023-05-16T14:40:17.865Z,773.00
2023-05-16T14:41:17.837Z,770.00
2023-05-16T14:42:17.832Z,770.00
2023-05-16T14:43:17.788Z,770.00
2023-05-16T14:44:17.880Z,769.00
2023-05-16T14:45:17.803Z,768.00
2023-05-16T14:46:17.931Z,768.00
2023-05-16T14:47:17.813Z,772.00
2023-05-16T14:48:17.840Z,776.00
2023-05-16T14:49:17.773Z,781.00
2023-05-16T14:50:17.761Z,784.00
2023-05-16T14:51:17.765Z,786.00
2023-05-16T14:52:20.915Z,790.00
2023-05-16T14:53:17.770Z,792.00
2023-05-16T14:54:17.743Z,793.00